createdAt,value
2023-02-15T00:00:39.192Z,95.01
2023-02-15T00:01:42.940Z,94.94
2023-02-15T00:02:50.102Z,94.89
2023-02-15T00:03:53.160Z,94.88
2023-02-15T00:04:57.302Z,94.88
2023-02-15T00:06:01.982Z,94.86
2023-02-15T00:07:05.680Z,94.87
2023-02-15T00:08:09.892Z,94.88
2023-02-15T00:09:14.043Z,94.91
2023-02-15T00:10:18.251Z,94.93
2023-02-15T00:11:22.403Z,94.94
2023-02-15T00:12:26.550Z,94.98
2023-02-15T00:13:30.650Z,95.04
2023-02-15T00:14:34.844Z,95.07
2023-02-15T00:15:39.029Z,95.09
2023-02-15T00:16:43.192Z,95.11
2023-02-15T00:17:53.203Z,95.12
2023-02-15T00:18:55.845Z,95.09
2023-02-15T00:20:00.027Z,95.10
2023-02-15T00:21:04.072Z,95.10
2023-02-15T00:22:09.198Z,95.11
2023-02-15T00:23:12.922Z,95.13
2023-02-15T00:24:17.219Z,95.12
2023-02-15T00:25:21.415Z,95.15
2023-02-15T00:26:25.541Z,95.14
2023-02-15T00:27:29.664Z,95.16
2023-02-15T00:28:33.940Z,95.15
2023-02-15T00:29:38.161Z,95.11
2023-02-15T00:30:42.271Z,95.05
2023-02-15T00:31:46.397Z,95.00
2023-02-15T00:32:50.512Z,94.94
2023-02-15T00:33:54.682Z,94.89
2023-02-15T00:34:58.802Z,94.81
2023-02-15T00:36:03.293Z,94.74
2023-02-15T00:37:07.093Z,94.66
2023-02-15T00:38:11.445Z,94.57
2023-02-15T00:39:15.624Z,94.52
2023-02-15T00:40:19.622Z,94.47
2023-02-15T00:41:23.885Z,94.44
2023-02-15T00:42:42.085Z,94.45
2023-02-15T00:43:44.918Z,94.44
2023-02-15T00:44:49.051Z,94.44
2023-02-15T00:45:53.258Z,94.44
2023-02-15T00:46:57.321Z,94.43
2023-02-15T00:48:01.549Z,94.42
2023-02-15T00:49:05.837Z,94.39
2023-02-15T00:50:09.962Z,94.35
2023-02-15T00:51:14.091Z,94.33
2023-02-15T00:52:18.312Z,94.32
2023-02-15T00:53:22.540Z,94.31
2023-02-15T00:54:29.686Z,94.28
2023-02-15T00:55:32.924Z,94.24
2023-02-15T00:56:37.034Z,94.21
2023-02-15T00:57:41.146Z,94.19
2023-02-15T00:58:59.449Z,94.16
2023-02-15T01:00:02.486Z,94.01
2023-02-15T01:01:06.563Z,93.90
2023-02-15T01:02:10.790Z,93.81
2023-02-15T01:03:14.979Z,93.69
2023-02-15T01:04:18.997Z,93.71
2023-02-15T01:05:23.152Z,93.72
2023-02-15T01:06:27.200Z,93.71
2023-02-15T01:07:31.321Z,93.73
2023-02-15T01:08:35.440Z,93.75
2023-02-15T01:09:42.644Z,93.77
2023-02-15T01:10:45.855Z,93.79
2023-02-15T01:11:50.069Z,93.80
2023-02-15T01:12:54.057Z,93.82
2023-02-15T01:13:58.188Z,93.79
2023-02-15T01:15:02.535Z,93.76
2023-02-15T01:16:06.637Z,93.75
2023-02-15T01:17:10.809Z,93.74
2023-02-15T01:18:14.954Z,93.68
2023-02-15T01:19:19.282Z,93.67
2023-02-15T01:20:23.356Z,93.65
2023-02-15T01:21:27.472Z,93.66
2023-02-15T01:22:31.647Z,93.65
2023-02-15T01:23:35.783Z,93.66
2023-02-15T01:24:39.944Z,93.70
2023-02-15T01:25:44.181Z,93.72
2023-02-15T01:26:48.155Z,93.75
2023-02-15T01:27:52.388Z,93.75
2023-02-15T01:28:56.539Z,93.70
2023-02-15T01:30:00.747Z,93.67
2023-02-15T01:31:04.863Z,93.68
2023-02-15T01:32:09.045Z,93.67
2023-02-15T01:33:13.224Z,93.70
2023-02-15T01:34:17.343Z,93.77
2023-02-15T01:35:21.591Z,93.81
2023-02-15T01:36:25.918Z,93.86
2023-02-15T01:37:29.863Z,93.91
2023-02-15T01:38:34.057Z,93.95
2023-02-15T01:39:38.282Z,94.00
2023-02-15T01:40:42.573Z,94.05
2023-02-15T01:41:46.837Z,94.09
2023-02-15T01:42:50.919Z,94.05
2023-02-15T01:43:55.182Z,94.01
2023-02-15T01:44:59.233Z,93.97
2023-02-15T01:46:03.861Z,93.91
2023-02-15T01:47:07.512Z,93.85
2023-02-15T01:48:11.606Z,93.84
2023-02-15T01:49:15.929Z,93.89
2023-02-15T01:50:20.123Z,93.92
2023-02-15T01:51:24.232Z,93.97
2023-02-15T01:52:28.442Z,94.02
2023-02-15T01:53:32.584Z,94.07
2023-02-15T01:54:36.773Z,94.08
2023-02-15T01:55:40.746Z,94.12
2023-02-15T01:56:44.955Z,94.11
2023-02-15T01:57:49.280Z,94.08
2023-02-15T01:58:53.340Z,94.03
2023-02-15T01:59:57.540Z,93.95
2023-02-15T02:01:01.710Z,93.91
2023-02-15T02:02:05.701Z,93.93
2023-02-15T02:03:09.931Z,94.00
2023-02-15T02:04:14.090Z,94.06
2023-02-15T02:05:18.184Z,94.16
2023-02-15T02:06:23.356Z,94.23
2023-02-15T02:07:26.484Z,94.34
2023-02-15T02:08:30.606Z,94.41
2023-02-15T02:09:34.702Z,94.44
2023-02-15T02:10:38.904Z,94.40
2023-02-15T02:11:42.970Z,94.33
2023-02-15T02:12:47.223Z,94.20
2023-02-15T02:13:51.388Z,94.10
2023-02-15T02:16:22.501Z,94.01
2023-02-15T02:17:26.472Z,94.04
2023-02-15T02:18:30.600Z,94.08
2023-02-15T02:19:34.736Z,94.23
2023-02-15T02:20:38.821Z,94.42
2023-02-15T02:21:42.928Z,94.62
2023-02-15T02:22:46.993Z,94.82
2023-02-15T02:23:51.058Z,95.05
2023-02-15T02:24:55.243Z,95.27
2023-02-15T02:25:59.816Z,95.51
2023-02-15T02:27:03.443Z,95.77
2023-02-15T02:28:07.499Z,96.05
2023-02-15T02:29:11.695Z,96.35
2023-02-15T02:30:15.917Z,96.73
2023-02-15T02:31:20.150Z,97.14
2023-02-15T02:32:24.275Z,97.57
2023-02-15T02:33:28.323Z,97.94
2023-02-15T02:34:32.385Z,98.17
2023-02-15T02:35:37.432Z,98.26
2023-02-15T02:36:41.217Z,98.29
2023-02-15T02:37:45.338Z,98.31
2023-02-15T02:38:49.471Z,98.33
2023-02-15T02:39:53.603Z,98.33
2023-02-15T02:40:57.770Z,98.33
2023-02-15T02:42:02.821Z,98.28
2023-02-15T02:43:06.547Z,98.29
2023-02-15T02:44:10.550Z,98.33
2023-02-15T02:45:14.832Z,98.37
2023-02-15T02:46:19.017Z,98.33
2023-02-15T02:47:23.083Z,98.35
2023-02-15T02:48:27.263Z,98.38
2023-02-15T02:49:45.330Z,98.41
2023-02-15T02:50:48.170Z,98.40
2023-02-15T02:51:52.111Z,98.40
2023-02-15T02:52:56.200Z,98.39
2023-02-15T02:54:00.388Z,98.36
2023-02-15T02:55:04.509Z,98.34
2023-02-15T02:56:24.666Z,98.32
2023-02-15T02:57:27.684Z,98.30
2023-02-15T02:58:31.693Z,98.30
2023-02-15T02:59:35.899Z,98.31
2023-02-15T03:00:40.000Z,98.36
2023-02-15T03:01:44.238Z,98.34
2023-02-15T03:02:48.336Z,98.38
2023-02-15T03:03:52.321Z,98.45
2023-02-15T03:04:56.504Z,98.50
2023-02-15T03:06:01.131Z,98.57
2023-02-15T03:07:04.826Z,98.63
2023-02-15T03:08:08.880Z,98.68
2023-02-15T03:09:12.938Z,98.77
2023-02-15T03:10:17.065Z,98.80
2023-02-15T03:11:21.235Z,98.81
2023-02-15T03:12:25.506Z,98.82
2023-02-15T03:13:29.544Z,98.82
2023-02-15T03:14:33.721Z,98.82
2023-02-15T03:15:37.874Z,98.85
2023-02-15T03:16:42.051Z,98.88
2023-02-15T03:17:46.121Z,98.91
2023-02-15T03:18:50.294Z,98.90
2023-02-15T03:20:08.565Z,98.89
2023-02-15T03:21:11.175Z,98.89
2023-02-15T03:22:15.318Z,98.87
2023-02-15T03:23:19.358Z,98.83
2023-02-15T03:24:23.528Z,98.80
2023-02-15T03:25:27.813Z,98.75
2023-02-15T03:26:31.933Z,98.71
2023-02-15T03:27:35.950Z,98.66
2023-02-15T03:28:40.231Z,98.67
2023-02-15T03:29:44.432Z,98.56
2023-02-15T03:30:48.572Z,98.49
2023-02-15T03:31:52.761Z,98.42
2023-02-15T03:32:56.635Z,98.34
2023-02-15T03:34:00.878Z,98.28
2023-02-15T03:35:04.916Z,98.22
2023-02-15T03:36:09.042Z,98.18
2023-02-15T03:37:13.210Z,98.09
2023-02-15T03:38:17.340Z,98.07
2023-02-15T03:39:21.533Z,98.04
2023-02-15T03:40:25.613Z,98.00
2023-02-15T03:41:29.662Z,97.95
2023-02-15T03:42:33.957Z,97.88
2023-02-15T03:43:38.076Z,97.77
2023-02-15T03:44:42.242Z,97.68
2023-02-15T03:45:46.372Z,97.51
2023-02-15T03:46:53.275Z,97.44
2023-02-15T03:47:54.577Z,97.46
2023-02-15T03:48:58.699Z,97.40
2023-02-15T03:50:02.758Z,97.63
2023-02-15T03:51:06.970Z,97.74
2023-02-15T03:52:11.247Z,97.75
2023-02-15T03:53:15.414Z,97.78
2023-02-15T03:54:19.441Z,97.78
2023-02-15T03:55:23.711Z,97.79
2023-02-15T03:56:27.698Z,97.78
2023-02-15T03:57:31.931Z,97.75
2023-02-15T03:58:36.025Z,97.76
2023-02-15T03:59:40.159Z,97.65
2023-02-15T04:00:44.361Z,97.62
2023-02-15T04:01:48.291Z,97.60
2023-02-15T04:02:52.548Z,97.59
2023-02-15T04:03:56.552Z,97.61
2023-02-15T04:05:00.793Z,97.64
2023-02-15T04:06:04.910Z,97.67
2023-02-15T04:07:09.005Z,97.67
2023-02-15T04:08:13.190Z,97.67
2023-02-15T04:09:17.287Z,97.70
2023-02-15T04:10:21.431Z,97.69
2023-02-15T04:11:25.616Z,97.73
2023-02-15T04:12:29.703Z,97.76
2023-02-15T04:13:33.849Z,97.81
2023-02-15T04:14:38.048Z,97.86
2023-02-15T04:15:42.171Z,97.94
2023-02-15T04:16:46.386Z,98.05
2023-02-15T04:17:50.453Z,98.17
2023-02-15T04:18:54.681Z,98.31
2023-02-15T04:19:58.884Z,98.41
2023-02-15T04:21:02.974Z,98.44
2023-02-15T04:22:07.077Z,98.46
2023-02-15T04:23:11.249Z,98.47
2023-02-15T04:24:15.319Z,98.49
2023-02-15T04:25:19.503Z,98.52
2023-02-15T04:26:23.493Z,98.40
2023-02-15T04:27:27.584Z,98.37
2023-02-15T04:28:31.829Z,98.36
2023-02-15T04:29:36.018Z,98.36
2023-02-15T04:30:40.126Z,98.41
2023-02-15T04:31:44.403Z,98.36
2023-02-15T04:32:48.324Z,98.33
2023-02-15T04:33:52.495Z,98.30
2023-02-15T04:34:56.683Z,98.25
2023-02-15T04:36:01.227Z,98.22
2023-02-15T04:37:04.909Z,98.20
2023-02-15T04:38:08.984Z,98.13
2023-02-15T04:39:13.091Z,98.06
2023-02-15T04:40:19.319Z,98.05
2023-02-15T04:41:21.409Z,97.92
2023-02-15T04:42:25.574Z,97.82
2023-02-15T04:43:29.832Z,97.66
2023-02-15T04:44:33.938Z,97.55
2023-02-15T04:45:52.078Z,97.45
2023-02-15T04:46:54.755Z,97.35
2023-02-15T04:47:58.767Z,97.29
2023-02-15T04:49:02.864Z,97.23
2023-02-15T04:50:07.056Z,97.08
2023-02-15T04:51:11.120Z,97.08
2023-02-15T04:52:21.236Z,97.01
2023-02-15T04:53:24.067Z,96.95
2023-02-15T04:54:28.119Z,96.87
2023-02-15T04:55:32.163Z,96.81
2023-02-15T04:56:36.203Z,96.76
2023-02-15T04:57:40.431Z,96.67
2023-02-15T04:58:44.447Z,96.59
2023-02-15T04:59:48.732Z,96.50
2023-02-15T05:00:52.774Z,96.42
2023-02-15T05:01:56.789Z,96.34
2023-02-15T05:03:01.044Z,96.27
2023-02-15T05:04:05.330Z,96.21
2023-02-15T05:05:09.319Z,96.15
2023-02-15T05:06:13.374Z,96.11
2023-02-15T05:07:17.481Z,96.05
2023-02-15T05:08:21.657Z,96.02
2023-02-15T05:09:25.662Z,95.95
2023-02-15T05:10:29.851Z,95.93
2023-02-15T05:11:33.995Z,95.90
2023-02-15T05:12:38.143Z,95.88
2023-02-15T05:13:42.314Z,95.87
2023-02-15T05:14:46.413Z,95.87
2023-02-15T05:15:50.551Z,95.86
2023-02-15T05:16:54.709Z,95.86
2023-02-15T05:17:58.746Z,95.88
2023-02-15T05:19:16.958Z,95.89
2023-02-15T05:20:19.920Z,95.90
2023-02-15T05:21:23.858Z,95.90
2023-02-15T05:22:28.047Z,95.87
2023-02-15T05:23:32.209Z,95.90
2023-02-15T05:24:36.345Z,95.91
2023-02-15T05:25:40.342Z,95.91
2023-02-15T05:26:44.668Z,95.93
2023-02-15T05:27:48.792Z,95.86
2023-02-15T05:28:52.971Z,95.81
2023-02-15T05:29:57.113Z,95.81
2023-02-15T05:31:01.332Z,95.81
2023-02-15T05:32:05.650Z,95.80
2023-02-15T05:33:09.373Z,95.81
2023-02-15T05:34:13.481Z,95.83
2023-02-15T05:35:31.635Z,95.76
2023-02-15T05:36:34.502Z,95.79
2023-02-15T05:37:38.586Z,95.81
2023-02-15T05:38:42.567Z,95.85
2023-02-15T05:39:46.814Z,95.86
2023-02-15T05:40:50.809Z,95.89
2023-02-15T05:41:54.916Z,95.91
2023-02-15T05:42:59.060Z,95.96
2023-02-15T05:44:03.220Z,96.03
2023-02-15T05:45:07.466Z,96.10
2023-02-15T05:46:11.486Z,96.17
2023-02-15T05:47:15.618Z,96.21
2023-02-15T05:48:19.806Z,96.25
2023-02-15T05:49:24.063Z,96.29
2023-02-15T05:50:28.130Z,96.35
2023-02-15T05:51:46.402Z,96.38
2023-02-15T05:52:51.248Z,96.42
2023-02-15T05:54:07.164Z,96.43
2023-02-15T05:55:09.989Z,96.40
2023-02-15T05:56:14.139Z,96.40
2023-02-15T05:57:18.250Z,96.37
2023-02-15T05:58:22.261Z,96.39
2023-02-15T05:59:26.538Z,96.38
2023-02-15T06:00:30.750Z,96.34
2023-02-15T06:01:34.754Z,96.31
2023-02-15T06:02:53.054Z,96.30
2023-02-15T06:03:56.078Z,96.27
2023-02-15T06:04:59.990Z,96.18
2023-02-15T06:06:04.351Z,96.12
2023-02-15T06:07:08.270Z,95.98
2023-02-15T06:08:12.292Z,95.92
2023-02-15T06:09:16.481Z,95.91
2023-02-15T06:10:20.707Z,95.89
2023-02-15T06:11:24.750Z,95.92
2023-02-15T06:12:28.944Z,95.98
2023-02-15T06:13:33.048Z,95.90
2023-02-15T06:14:37.068Z,95.94
2023-02-15T06:15:41.220Z,96.00
2023-02-15T06:16:45.262Z,96.03
2023-02-15T06:17:49.464Z,96.06
2023-02-15T06:18:53.893Z,96.10
2023-02-15T06:19:57.633Z,96.15
2023-02-15T06:21:01.861Z,96.20
2023-02-15T06:22:06.012Z,96.24
2023-02-15T06:23:10.173Z,96.27
2023-02-15T06:24:14.295Z,96.33
2023-02-15T06:25:18.441Z,96.32
2023-02-15T06:26:22.486Z,96.35
2023-02-15T06:27:26.757Z,96.36
2023-02-15T06:28:30.993Z,96.36
2023-02-15T06:29:34.988Z,96.38
2023-02-15T06:30:39.250Z,96.40
2023-02-15T06:31:43.590Z,96.39
2023-02-15T06:32:47.495Z,96.38
2023-02-15T06:33:51.627Z,96.40
2023-02-15T06:34:55.708Z,96.39
2023-02-15T06:36:00.258Z,96.41
2023-02-15T06:37:03.965Z,96.52
2023-02-15T06:38:08.354Z,96.45
2023-02-15T06:39:12.297Z,96.47
2023-02-15T06:40:16.464Z,96.47
2023-02-15T06:41:20.616Z,96.45
2023-02-15T06:42:24.631Z,96.45
2023-02-15T06:43:28.861Z,96.44
2023-02-15T06:44:33.004Z,96.44
2023-02-15T06:45:37.123Z,96.40
2023-02-15T06:46:41.340Z,96.33
2023-02-15T06:47:45.377Z,96.31
2023-02-15T06:48:49.472Z,96.30
2023-02-15T06:49:53.643Z,96.34
2023-02-15T06:50:58.681Z,96.38
2023-02-15T06:52:02.440Z,96.45
2023-02-15T06:53:06.502Z,96.56
2023-02-15T06:54:10.747Z,96.69
2023-02-15T06:55:14.935Z,96.85
2023-02-15T06:56:19.025Z,97.02
2023-02-15T06:57:23.073Z,97.18
2023-02-15T06:58:27.285Z,97.31
2023-02-15T06:59:31.309Z,97.45
2023-02-15T07:00:35.608Z,97.56
2023-02-15T07:01:39.836Z,97.67
2023-02-15T07:02:43.886Z,97.77
2023-02-15T07:03:47.986Z,97.87
2023-02-15T07:04:52.207Z,97.94
2023-02-15T07:05:56.183Z,98.00
2023-02-15T07:07:00.399Z,98.03
2023-02-15T07:08:04.537Z,98.06
2023-02-15T07:09:08.745Z,98.06
2023-02-15T07:10:12.780Z,98.08
2023-02-15T07:11:17.158Z,98.09
2023-02-15T07:12:21.130Z,98.11
2023-02-15T07:13:25.243Z,98.09
2023-02-15T07:14:30.414Z,98.11
2023-02-15T07:15:34.141Z,98.14
2023-02-15T07:16:38.414Z,98.13
2023-02-15T07:17:42.389Z,98.14
2023-02-15T07:19:02.700Z,98.10
2023-02-15T07:20:05.841Z,98.23
2023-02-15T07:21:09.862Z,98.21
2023-02-15T07:22:14.149Z,98.24
2023-02-15T07:23:18.173Z,98.28
2023-02-15T07:24:22.381Z,98.33
2023-02-15T07:25:26.584Z,98.36
2023-02-15T07:26:30.744Z,98.42
2023-02-15T07:27:34.863Z,98.48
2023-02-15T07:28:38.987Z,98.49
2023-02-15T07:29:43.210Z,98.46
2023-02-15T07:30:47.383Z,98.56
2023-02-15T07:31:51.569Z,98.59
2023-02-15T07:32:55.605Z,98.58
2023-02-15T07:33:59.795Z,98.61
2023-02-15T07:35:04.101Z,98.63
2023-02-15T07:36:09.157Z,98.64
2023-02-15T07:37:12.903Z,98.67
2023-02-15T07:38:17.082Z,98.67
2023-02-15T07:39:21.344Z,98.67
2023-02-15T07:40:25.436Z,98.69
2023-02-15T07:41:29.633Z,98.72
2023-02-15T07:42:33.698Z,98.73
2023-02-15T07:43:37.980Z,98.75
2023-02-15T07:44:42.200Z,98.75
2023-02-15T07:45:46.317Z,98.75
2023-02-15T07:46:50.490Z,98.75
2023-02-15T07:47:54.709Z,98.77
2023-02-15T07:49:01.861Z,98.77
2023-02-15T07:50:05.049Z,98.77
2023-02-15T07:51:09.258Z,98.79
2023-02-15T07:52:13.359Z,98.81
2023-02-15T07:53:17.442Z,98.81
2023-02-15T07:54:21.714Z,98.86
2023-02-15T07:55:39.966Z,98.86
2023-02-15T07:56:42.922Z,98.88
2023-02-15T07:57:47.017Z,98.89
2023-02-15T07:59:05.330Z,98.92
2023-02-15T08:00:08.370Z,98.95
2023-02-15T08:01:12.534Z,98.93
2023-02-15T08:02:18.420Z,98.94
2023-02-15T08:03:21.141Z,98.95
2023-02-15T08:04:25.019Z,98.99
2023-02-15T08:05:29.345Z,99.01
2023-02-15T08:06:33.544Z,99.04
2023-02-15T08:07:37.682Z,99.05
2023-02-15T08:08:41.778Z,99.10
2023-02-15T08:09:46.045Z,99.11
2023-02-15T08:10:50.181Z,99.12
2023-02-15T08:11:54.459Z,99.12
2023-02-15T08:12:58.680Z,99.13
2023-02-15T08:14:02.817Z,99.13
2023-02-15T08:15:06.987Z,99.13
2023-02-15T08:16:14.109Z,99.12
2023-02-15T08:17:15.313Z,99.11
2023-02-15T08:18:19.508Z,99.11
2023-02-15T08:19:23.885Z,99.11
2023-02-15T08:20:30.928Z,99.12
2023-02-15T08:21:34.059Z,99.18
2023-02-15T08:22:38.398Z,99.19
2023-02-15T08:23:42.419Z,99.19
2023-02-15T08:24:46.586Z,99.20
2023-02-15T08:25:50.767Z,99.23
2023-02-15T08:26:54.997Z,99.27
2023-02-15T08:27:59.173Z,99.30
2023-02-15T08:29:03.429Z,99.31
2023-02-15T08:30:07.602Z,99.33
2023-02-15T08:31:11.945Z,99.30
2023-02-15T08:32:16.090Z,99.34
2023-02-15T08:33:20.126Z,99.34
2023-02-15T08:34:24.272Z,99.34
2023-02-15T08:35:28.643Z,99.35
2023-02-15T08:36:32.633Z,99.43
2023-02-15T08:37:36.811Z,99.48
2023-02-15T08:38:40.935Z,99.50
2023-02-15T08:39:45.176Z,99.53
2023-02-15T08:40:49.204Z,99.54
2023-02-15T08:41:53.453Z,99.59
2023-02-15T08:42:57.643Z,99.62
2023-02-15T08:44:01.914Z,99.64
2023-02-15T08:45:06.035Z,99.67
2023-02-15T08:46:10.393Z,99.70
2023-02-15T08:47:14.424Z,99.74
2023-02-15T08:48:18.671Z,99.77
2023-02-15T08:49:22.831Z,99.80
2023-02-15T08:50:26.878Z,99.83
2023-02-15T08:51:31.169Z,99.83
2023-02-15T08:52:35.442Z,99.85
2023-02-15T08:53:39.477Z,99.86
2023-02-15T08:54:43.698Z,99.88
2023-02-15T08:56:01.959Z,99.92
2023-02-15T08:57:04.748Z,99.96
2023-02-15T08:58:08.904Z,99.99
2023-02-15T08:59:13.077Z,100.00
2023-02-15T09:00:17.158Z,100.00
2023-02-15T09:01:21.498Z,100.00
2023-02-15T09:02:25.667Z,100.00
2023-02-15T09:03:29.558Z,100.00
2023-02-15T09:04:33.867Z,100.00
2023-02-15T09:05:38.055Z,100.00
2023-02-15T09:06:42.306Z,99.99
2023-02-15T09:07:46.301Z,100.00
2023-02-15T09:08:50.474Z,100.00
2023-02-15T09:09:54.668Z,100.00
2023-02-15T09:10:58.931Z,99.99
2023-02-15T09:12:03.191Z,100.00
2023-02-15T09:13:07.290Z,99.99
2023-02-15T09:14:11.509Z,99.98
2023-02-15T09:15:15.641Z,100.00
2023-02-15T09:16:19.891Z,100.00
2023-02-15T09:17:24.018Z,100.00
2023-02-15T09:18:28.248Z,100.00
2023-02-15T09:19:32.428Z,100.00
2023-02-15T09:20:36.613Z,100.00
2023-02-15T09:21:40.734Z,100.00
2023-02-15T09:22:44.879Z,100.00
2023-02-15T09:23:49.149Z,100.00
2023-02-15T09:24:53.304Z,100.00
2023-02-15T09:25:57.527Z,100.00
2023-02-15T09:27:01.692Z,100.00
2023-02-15T09:28:05.814Z,100.00
2023-02-15T09:29:09.982Z,100.00
2023-02-15T09:30:14.276Z,100.00
2023-02-15T09:31:18.369Z,100.00
2023-02-15T09:32:22.376Z,100.00
2023-02-15T09:33:26.631Z,100.00
2023-02-15T09:34:30.717Z,100.00
2023-02-15T09:35:35.006Z,100.00
2023-02-15T09:36:39.257Z,100.00
2023-02-15T09:37:43.536Z,100.00
2023-02-15T09:38:48.946Z,100.00
2023-02-15T09:39:52.592Z,100.00
2023-02-15T09:40:56.774Z,100.00
2023-02-15T09:42:00.819Z,100.00
2023-02-15T09:43:05.065Z,100.00
2023-02-15T09:44:09.327Z,100.00
2023-02-15T09:45:13.548Z,100.00
2023-02-15T09:46:17.860Z,100.00
2023-02-15T09:47:21.928Z,100.00
2023-02-15T09:48:26.340Z,100.00
2023-02-15T09:49:30.350Z,100.00
2023-02-15T09:50:36.585Z,100.00
2023-02-15T09:51:38.705Z,100.00
2023-02-15T09:52:42.846Z,100.00
2023-02-15T09:53:47.132Z,100.00
2023-02-15T09:54:51.423Z,100.00
2023-02-15T09:56:09.532Z,100.00
2023-02-15T09:57:12.588Z,100.00
2023-02-15T09:58:17.312Z,100.00
2023-02-15T09:59:22.136Z,100.00
2023-02-15T10:00:25.791Z,100.00
2023-02-15T10:01:29.944Z,100.00
2023-02-15T10:02:34.166Z,100.00
2023-02-15T10:03:38.427Z,100.00
2023-02-15T10:04:42.621Z,100.00
2023-02-15T10:05:46.711Z,100.00
2023-02-15T10:06:50.895Z,100.00
2023-02-15T10:07:55.097Z,100.00
2023-02-15T10:08:59.144Z,100.00
2023-02-15T10:10:03.439Z,100.00
2023-02-15T10:11:07.888Z,100.00
2023-02-15T10:12:12.184Z,100.00
2023-02-15T10:13:16.317Z,100.00
2023-02-15T10:14:20.426Z,100.00
2023-02-15T10:15:24.592Z,100.00
2023-02-15T10:16:28.809Z,100.00
2023-02-15T10:17:32.954Z,100.00
2023-02-15T10:18:37.169Z,100.00
2023-02-15T10:19:41.403Z,100.00
2023-02-15T10:20:45.579Z,100.00
2023-02-15T10:22:03.962Z,100.00
2023-02-15T10:23:07.220Z,100.00
2023-02-15T10:24:11.282Z,100.00
2023-02-15T10:25:15.711Z,100.00
2023-02-15T10:26:19.713Z,100.00
2023-02-15T10:27:24.315Z,100.00
2023-02-15T10:28:28.172Z,100.00
2023-02-15T10:29:32.475Z,100.00
2023-02-15T10:30:36.803Z,100.00
2023-02-15T10:31:41.577Z,100.00
2023-02-15T10:32:45.496Z,100.00
2023-02-15T10:33:49.782Z,100.00
2023-02-15T10:34:54.991Z,100.00
2023-02-15T10:35:58.797Z,100.00
2023-02-15T10:37:03.883Z,100.00
2023-02-15T10:38:07.890Z,100.00
2023-02-15T10:39:11.931Z,100.00
2023-02-15T10:40:16.176Z,100.00
2023-02-15T10:41:20.430Z,100.00
2023-02-15T10:42:24.610Z,100.00
2023-02-15T10:43:28.776Z,100.00
2023-02-15T10:44:34.270Z,100.00
2023-02-15T10:45:37.998Z,100.00
2023-02-15T10:46:42.191Z,100.00
2023-02-15T10:47:46.463Z,100.00
2023-02-15T10:48:50.706Z,100.00
2023-02-15T10:49:54.896Z,100.00
2023-02-15T10:50:59.166Z,100.00
2023-02-15T10:52:03.614Z,100.00
2023-02-15T10:53:07.670Z,100.00
2023-02-15T10:54:11.993Z,100.00
2023-02-15T10:55:16.102Z,100.00
2023-02-15T10:56:20.391Z,100.00
2023-02-15T10:57:24.669Z,100.00
2023-02-15T10:58:28.593Z,100.00
2023-02-15T10:59:32.903Z,100.00
2023-02-15T11:00:37.334Z,100.00
2023-02-15T11:01:41.483Z,100.00
2023-02-15T11:02:45.679Z,100.00
2023-02-15T11:03:50.050Z,100.00
2023-02-15T11:04:54.189Z,100.00
2023-02-15T11:05:58.314Z,100.00
2023-02-15T11:07:02.510Z,100.00
2023-02-15T11:08:06.607Z,100.00
2023-02-15T11:09:10.920Z,100.00
2023-02-15T11:10:17.384Z,100.00
2023-02-15T11:11:20.428Z,100.00
2023-02-15T11:12:24.369Z,100.00
2023-02-15T11:13:28.546Z,100.00
2023-02-15T11:14:33.049Z,100.00
2023-02-15T11:15:37.322Z,100.00
2023-02-15T11:16:41.377Z,100.00
2023-02-15T11:17:45.676Z,100.00
2023-02-15T11:18:49.921Z,100.00
2023-02-15T11:19:54.090Z,100.00
2023-02-15T11:20:58.371Z,100.00
2023-02-15T11:22:02.612Z,100.00
2023-02-15T11:23:09.759Z,100.00
2023-02-15T11:24:13.046Z,100.00
2023-02-15T11:25:17.252Z,100.00
2023-02-15T11:26:21.364Z,100.00
2023-02-15T11:27:25.626Z,100.00
2023-02-15T11:28:29.869Z,100.00
2023-02-15T11:29:34.265Z,100.00
2023-02-15T11:30:38.405Z,100.00
2023-02-15T11:31:42.848Z,100.00
2023-02-15T11:32:46.808Z,100.00
2023-02-15T11:33:50.930Z,100.00
2023-02-15T11:34:55.351Z,100.00
2023-02-15T11:35:59.457Z,100.00
2023-02-15T11:37:03.668Z,100.00
2023-02-15T11:38:07.840Z,100.00
2023-02-15T11:39:12.048Z,100.00
2023-02-15T11:40:16.259Z,100.00
2023-02-15T11:41:20.334Z,100.00
2023-02-15T11:42:24.612Z,100.00
2023-02-15T11:43:28.821Z,100.00
2023-02-15T11:44:32.992Z,100.00
2023-02-15T11:45:37.231Z,100.00
2023-02-15T11:46:41.571Z,100.00
2023-02-15T11:47:45.708Z,100.00
2023-02-15T11:48:49.943Z,100.00
2023-02-15T11:49:54.291Z,100.00
2023-02-15T11:50:58.489Z,100.00
2023-02-15T11:52:02.612Z,100.00
2023-02-15T11:53:06.936Z,100.00
2023-02-15T11:54:11.179Z,100.00
2023-02-15T11:55:16.240Z,100.00
2023-02-15T11:56:20.224Z,100.00
2023-02-15T11:57:24.261Z,100.00
2023-02-15T11:58:28.491Z,100.00
2023-02-15T11:59:32.612Z,100.00
2023-02-15T12:00:36.968Z,100.00
2023-02-15T12:01:41.155Z,100.00
2023-02-15T12:02:45.509Z,100.00
2023-02-15T12:03:50.513Z,100.00
2023-02-15T12:04:54.172Z,100.00
2023-02-15T12:05:58.439Z,100.00
2023-02-15T12:07:02.848Z,100.00
2023-02-15T12:08:06.891Z,100.00
2023-02-15T12:09:11.480Z,100.00
2023-02-15T12:10:15.634Z,100.00
2023-02-15T12:11:19.816Z,100.00
2023-02-15T12:12:23.929Z,100.00
2023-02-15T12:13:28.158Z,100.00
2023-02-15T12:14:32.502Z,100.00
2023-02-15T12:15:36.559Z,100.00
2023-02-15T12:16:40.664Z,100.00
2023-02-15T12:17:45.842Z,100.00
2023-02-15T12:18:49.781Z,100.00
2023-02-15T12:19:53.984Z,100.00
2023-02-15T12:20:58.174Z,100.00
2023-02-15T12:22:02.413Z,100.00
2023-02-15T12:23:06.605Z,100.00
2023-02-15T12:24:19.865Z,100.00
2023-02-15T12:26:48.071Z,100.00
2023-02-15T12:28:05.093Z,100.00
2023-02-15T12:29:08.344Z,100.00
2023-02-15T12:30:12.587Z,100.00
2023-02-15T12:31:16.743Z,100.00
2023-02-15T12:32:20.908Z,100.00
2023-02-15T12:33:25.027Z,100.00
2023-02-15T12:34:29.208Z,100.00
2023-02-15T12:35:33.294Z,100.00
2023-02-15T12:36:37.498Z,100.00
2023-02-15T12:37:42.863Z,100.00
2023-02-15T12:38:46.588Z,100.00
2023-02-15T12:39:50.814Z,100.00
2023-02-15T12:40:54.977Z,100.00
2023-02-15T12:41:59.151Z,100.00
2023-02-15T12:43:09.039Z,100.00
2023-02-15T12:44:07.770Z,100.00
2023-02-15T12:45:11.874Z,100.00
2023-02-15T12:46:16.066Z,100.00
2023-02-15T12:47:20.241Z,100.00
2023-02-15T12:48:24.443Z,100.00
2023-02-15T12:49:28.675Z,100.00
2023-02-15T12:50:35.864Z,100.00
2023-02-15T12:51:37.135Z,100.00
2023-02-15T12:52:41.242Z,100.00
2023-02-15T12:53:45.471Z,100.00
2023-02-15T12:54:49.677Z,100.00
2023-02-15T12:55:54.058Z,100.00
2023-02-15T12:56:58.182Z,100.00
2023-02-15T12:58:02.352Z,100.00
2023-02-15T12:59:06.572Z,100.00
2023-02-15T13:00:10.751Z,100.00
2023-02-15T13:01:14.951Z,100.00
2023-02-15T13:02:19.102Z,100.00
2023-02-15T13:03:23.303Z,100.00
2023-02-15T13:04:27.537Z,100.00
2023-02-15T13:05:31.738Z,100.00
2023-02-15T13:06:35.809Z,100.00
2023-02-15T13:07:39.976Z,100.00
2023-02-15T13:08:58.318Z,100.00
2023-02-15T13:10:04.664Z,100.00
2023-02-15T13:11:07.849Z,100.00
2023-02-15T13:12:12.036Z,100.00
2023-02-15T13:13:16.288Z,100.00
2023-02-15T13:14:20.408Z,100.00
2023-02-15T13:15:24.661Z,100.00
2023-02-15T13:16:28.885Z,100.00
2023-02-15T13:17:33.001Z,100.00
2023-02-15T13:18:37.196Z,100.00
2023-02-15T13:19:41.488Z,100.00
2023-02-15T13:20:45.740Z,100.00
2023-02-15T13:21:49.895Z,100.00
2023-02-15T13:22:54.123Z,100.00
2023-02-15T13:23:58.359Z,100.00
2023-02-15T13:25:02.429Z,100.00
2023-02-15T13:26:06.675Z,100.00
2023-02-15T13:27:15.738Z,100.00
2023-02-15T13:28:15.203Z,100.00
2023-02-15T13:29:19.373Z,100.00
2023-02-15T13:30:23.609Z,100.00
2023-02-15T13:31:27.912Z,100.00
2023-02-15T13:32:32.037Z,100.00
2023-02-15T13:33:36.224Z,100.00
2023-02-15T13:34:40.484Z,100.00
2023-02-15T13:35:44.610Z,100.00
2023-02-15T13:36:48.759Z,100.00
2023-02-15T13:37:52.954Z,100.00
2023-02-15T13:38:57.158Z,100.00
2023-02-15T13:40:01.349Z,100.00
2023-02-15T13:41:05.635Z,100.00
2023-02-15T13:42:09.880Z,100.00
2023-02-15T13:43:14.079Z,100.00
2023-02-15T13:44:18.321Z,100.00
2023-02-15T13:45:22.443Z,100.00